Time;durP1;ratioP1;P1;durP2;ratioP2;P2;SDS_P1;SDS_P2;PMS_P1;PMS_P2;Temp;Humidity;BMP_temperature;BMP_pressure;BME280_temperature;BME280_humidity;BME280_pressure;Samples;Min_cycle;Max_cycle;Signal;HPM_P1;HPM_P2
2023/08/14 00:00:32;;;;;;;4.27;2.10;;;;;;;22.17;100.00;100183.56;4983819;28;20209;-77
2023/08/14 00:02:57;;;;;;;2.23;2.00;;;;;;;22.14;100.00;100186.41;4987622;28;20224;-79
2023/08/14 00:05:23;;;;;;;2.57;2.10;;;;;;;22.11;100.00;100188.34;4983251;28;20299;-77
2023/08/14 00:07:48;;;;;;;2.10;1.90;;;;;;;22.10;100.00;100195.44;4994614;28;20268;-77
2023/08/14 00:10:14;;;;;;;1.97;1.87;;;;;;;22.08;100.00;100190.22;4983373;28;20296;-77
2023/08/14 00:12:39;;;;;;;2.23;2.03;;;;;;;22.09;100.00;100188.47;4985355;28;20693;-77
2023/08/14 00:15:05;;;;;;;2.70;1.60;;;;;;;22.08;100.00;100184.13;4979432;28;20189;-76
2023/08/14 00:17:30;;;;;;;2.20;2.00;;;;;;;22.07;100.00;100174.53;4978624;28;20197;-78
2023/08/14 00:19:55;;;;;;;2.60;2.07;;;;;;;22.07;100.00;100172.75;4983804;28;20196;-77
2023/08/14 00:22:21;;;;;;;2.00;1.80;;;;;;;22.06;100.00;100178.97;4994921;28;20287;-77
2023/08/14 00:24:46;;;;;;;2.27;2.00;;;;;;;22.04;100.00;100180.84;4981543;28;20248;-78
2023/08/14 00:27:12;;;;;;;2.00;1.80;;;;;;;22.04;100.00;100187.88;4987205;28;20190;-77
2023/08/14 00:29:37;;;;;;;2.10;1.90;;;;;;;22.05;100.00;100192.22;4999247;28;20300;-77
2023/08/14 00:32:03;;;;;;;2.27;2.00;;;;;;;22.06;100.00;100205.31;4987332;28;21026;-78
2023/08/14 00:34:28;;;;;;;2.00;1.90;;;;;;;22.07;100.00;100198.25;4978233;28;20185;-78
2023/08/14 00:36:53;;;;;;;2.40;2.23;;;;;;;22.08;100.00;100213.13;4984015;28;20247;-77
2023/08/14 00:39:19;;;;;;;1.87;1.77;;;;;;;22.08;100.00;100224.50;4990186;28;20197;-77
2023/08/14 00:41:44;;;;;;;4.70;1.90;;;;;;;22.07;100.00;100241.25;5006505;28;20189;-78
2023/08/14 00:44:09;;;;;;;2.40;2.20;;;;;;;22.08;100.00;100250.00;4992669;28;20982;-78
2023/08/14 00:46:35;;;;;;;3.73;2.37;;;;;;;22.07;100.00;100245.69;4993932;28;20225;-78
2023/08/14 00:49:00;;;;;;;2.47;2.17;;;;;;;22.07;100.00;100224.59;4992529;28;20197;-78
2023/08/14 00:51:26;;;;;;;2.50;2.30;;;;;;;22.07;100.00;100214.06;4986608;28;20688;-78
2023/08/14 00:53:53;;;;;;;3.60;2.40;;;;;;;22.07;100.00;100214.06;4996240;28;20712;-78
2023/08/14 00:56:20;;;;;;;3.10;2.80;;;;;;;22.10;100.00;100194.56;4993350;28;20192;-77
2023/08/14 00:58:47;;;;;;;2.90;2.70;;;;;;;22.11;100.00;100185.72;4989553;28;20215;-79
2023/08/14 01:01:12;;;;;;;3.40;3.10;;;;;;;22.12;100.00;100195.31;4991429;28;20185;-79
2023/08/14 01:03:39;;;;;;;3.07;2.70;;;;;;;22.13;100.00;100181.22;4997113;28;20776;-79
2023/08/14 01:06:04;;;;;;;3.07;2.83;;;;;;;22.13;100.00;100189.97;4993518;28;20185;-77
2023/08/14 01:08:31;;;;;;;3.10;2.90;;;;;;;22.13;100.00;100191.75;5001818;28;20192;-78
2023/08/14 01:11:02;;;;;;;2.87;2.67;;;;;;;22.10;100.00;100191.94;4987062;28;20710;-79
2023/08/14 01:13:36;;;;;;;3.20;3.00;;;;;;;22.07;100.00;100192.97;4987096;28;20315;-78
2023/08/14 01:16:09;;;;;;;3.67;3.37;;;;;;;22.05;100.00;100190.44;4984741;28;20189;-78
2023/08/14 01:18:38;;;;;;;3.57;3.27;;;;;;;22.03;100.00;100189.69;4996552;28;20189;-78
2023/08/14 01:21:16;;;;;;;3.40;3.20;;;;;;;22.03;100.00;100189.69;4987788;28;20240;-78
2023/08/14 01:23:50;;;;;;;3.53;3.23;;;;;;;22.00;100.00;100181.94;4990239;28;20204;-78
2023/08/14 01:26:16;;;;;;;3.30;3.10;;;;;;;21.98;100.00;100186.44;5002207;28;20192;-77
2023/08/14 01:28:41;;;;;;;3.70;3.30;;;;;;;21.96;100.00;100190.13;4991909;28;20189;-78
2023/08/14 01:31:07;;;;;;;3.47;2.90;;;;;;;21.94;100.00;100190.19;4988485;28;20265;-77
2023/08/14 01:33:32;;;;;;;3.40;3.03;;;;;;;21.89;100.00;100185.19;4987228;28;20939;-78
2023/08/14 01:36:26;;;;;;;3.50;3.20;;;;;;;21.88;100.00;100183.50;4990061;28;21102;-78
2023/08/14 01:39:09;;;;;;;3.73;3.43;;;;;;;21.85;100.00;100181.06;4989734;28;20207;-78
2023/08/14 01:41:59;;;;;;;3.83;3.43;;;;;;;21.83;100.00;100180.31;4989873;28;20272;-77
2023/08/14 01:44:26;;;;;;;3.60;3.40;;;;;;;21.81;100.00;100168.13;4991693;28;20169;-77
2023/08/14 01:46:56;;;;;;;3.73;3.40;;;;;;;21.77;100.00;100159.56;4986027;28;20624;-77
2023/08/14 01:49:24;;;;;;;4.83;3.70;;;;;;;21.74;100.00;100147.44;5007391;28;20218;-77
2023/08/14 01:51:53;;;;;;;3.40;3.10;;;;;;;21.71;100.00;100155.50;4978957;28;20201;-77
2023/08/14 01:54:18;;;;;;;4.10;3.70;;;;;;;21.69;100.00;100149.47;4989566;28;20200;-79
2023/08/14 01:56:44;;;;;;;3.70;3.37;;;;;;;21.66;100.00;100143.56;4986133;28;20189;-77
2023/08/14 01:59:09;;;;;;;3.90;3.53;;;;;;;21.61;100.00;100144.66;4988212;28;20189;-77
2023/08/14 02:01:35;;;;;;;4.30;3.40;;;;;;;21.58;100.00;100141.31;4996843;28;20204;-77
2023/08/14 02:04:00;;;;;;;3.90;3.57;;;;;;;21.54;100.00;100135.41;4989846;28;20205;-77
2023/08/14 02:06:25;;;;;;;3.30;3.00;;;;;;;21.52;100.00;100134.63;4983421;28;20184;-77
2023/08/14 02:08:51;;;;;;;3.27;2.97;;;;;;;21.47;100.00;100129.63;5001419;28;20185;-77
2023/08/14 02:11:16;;;;;;;3.37;3.07;;;;;;;21.44;100.00;100131.56;4983073;28;20217;-77
2023/08/14 02:13:41;;;;;;;3.20;3.00;;;;;;;21.42;100.00;100138.69;4986864;28;20235;-77
2023/08/14 02:16:07;;;;;;;3.90;3.60;;;;;;;21.39;100.00;100131.84;4988518;28;20312;-76
2023/08/14 02:18:32;;;;;;;4.00;3.50;;;;;;;21.37;100.00;100136.34;5001206;28;20682;-77
2023/08/14 02:20:57;;;;;;;4.00;3.57;;;;;;;21.33;100.00;100121.66;4988064;28;20196;-76
2023/08/14 02:23:23;;;;;;;3.73;3.47;;;;;;;21.31;100.00;100126.19;4991991;28;20778;-77
2023/08/14 02:25:48;;;;;;;3.83;3.53;;;;;;;21.29;100.00;100118.34;4981619;28;20208;-77
2023/08/14 02:28:13;;;;;;;3.60;3.30;;;;;;;21.27;100.00;100122.00;4987068;28;20189;-77
2023/08/14 02:30:42;;;;;;;3.70;3.40;;;;;;;21.26;100.00;100122.94;4991522;28;20211;-78
2023/08/14 02:33:08;;;;;;;3.50;3.20;;;;;;;21.24;100.00;100127.44;4981702;28;20693;-78
2023/08/14 02:35:36;;;;;;;3.60;3.30;;;;;;;21.22;100.00;100126.69;4987075;28;20300;-77
2023/08/14 02:38:04;;;;;;;3.60;3.33;;;;;;;21.19;100.00;100143.50;4983317;28;20192;-77
2023/08/14 02:40:29;;;;;;;5.00;3.57;;;;;;;21.15;100.00;100145.47;4986024;28;20205;-77
2023/08/14 02:43:00;;;;;;;4.57;3.93;;;;;;;21.13;100.00;100134.16;4993898;28;20226;-80
2023/08/14 02:45:25;;;;;;;4.53;3.93;;;;;;;21.11;100.00;100130.75;4983570;28;20772;-78
2023/08/14 02:47:51;;;;;;;4.17;3.77;;;;;;;21.08;100.00;100136.19;4981105;28;20186;-78
2023/08/14 02:50:16;;;;;;;4.13;3.73;;;;;;;21.07;100.00;100133.66;4979722;28;21040;-76
2023/08/14 02:52:41;;;;;;;4.20;3.80;;;;;;;21.04;100.00;100129.41;4991536;28;20296;-78
2023/08/14 02:55:07;;;;;;;4.03;3.70;;;;;;;21.02;100.00;100136.56;4988658;28;20581;-79
2023/08/14 02:57:32;;;;;;;4.30;3.90;;;;;;;20.99;100.00;100136.72;4988986;28;20224;-79
2023/08/14 02:59:58;;;;;;;3.83;3.60;;;;;;;20.97;100.00;100128.06;4987431;28;20193;-78
2023/08/14 03:02:23;;;;;;;3.80;3.50;;;;;;;20.95;100.00;100130.75;4991445;28;20226;-77
2023/08/14 03:04:49;;;;;;;3.67;3.37;;;;;;;20.93;100.00;100137.91;4988496;28;20188;-77
2023/08/14 03:07:15;;;;;;;4.13;3.67;;;;;;;20.92;100.00;100138.84;4985897;28;20193;-78
2023/08/14 03:09:40;;;;;;;4.03;3.60;;;;;;;20.92;100.00;100137.97;5000302;28;20710;-77
2023/08/14 03:12:05;;;;;;;3.70;3.40;;;;;;;20.90;100.00;100132.81;4989490;28;20189;-77
2023/08/14 03:14:31;;;;;;;3.90;3.57;;;;;;;20.89;100.00;100133.72;4983878;28;20200;-77
2023/08/14 03:16:56;;;;;;;3.77;3.47;;;;;;;20.89;100.00;100135.50;4985949;28;20735;-77
2023/08/14 03:19:21;;;;;;;3.40;3.20;;;;;;;20.88;100.00;100137.28;4985736;28;20285;-77
2023/08/14 03:21:50;;;;;;;4.20;3.90;;;;;;;20.87;100.00;100138.22;4993581;28;20242;-77
2023/08/14 03:24:16;;;;;;;3.73;3.43;;;;;;;20.86;100.00;100140.03;4986260;28;20669;-78
2023/08/14 03:26:41;;;;;;;3.87;3.50;;;;;;;20.87;100.00;100140.84;4986646;28;20271;-76
2023/08/14 03:29:06;;;;;;;4.07;3.47;;;;;;;20.86;100.00;100131.25;4986311;28;20657;-77
2023/08/14 03:31:32;;;;;;;4.03;3.73;;;;;;;20.86;100.00;100139.16;4987369;28;20304;-77
2023/08/14 03:33:57;;;;;;;3.83;3.53;;;;;;;20.86;100.00;100133.91;4985335;28;20554;-78
2023/08/14 03:36:22;;;;;;;4.13;3.73;;;;;;;20.86;100.00;100131.25;4989105;28;20189;-76
2023/08/14 03:38:48;;;;;;;4.43;3.77;;;;;;;20.86;100.00;100139.16;4984146;28;20685;-77
2023/08/14 03:41:13;;;;;;;4.10;3.50;;;;;;;20.85;100.00;100142.72;4983124;28;20192;-77
2023/08/14 03:43:38;;;;;;;4.17;3.60;;;;;;;20.83;100.00;100145.44;4984851;28;20205;-78
2023/08/14 03:46:04;;;;;;;4.17;3.40;;;;;;;20.83;100.00;100145.44;4987120;28;20190;-77
2023/08/14 03:48:29;;;;;;;3.60;3.30;;;;;;;20.82;100.00;100145.50;4985577;28;20217;-77
2023/08/14 03:50:54;;;;;;;4.00;3.70;;;;;;;20.78;100.00;100144.00;4985293;28;20287;-77
2023/08/14 03:53:20;;;;;;;3.33;3.03;;;;;;;20.74;100.00;100145.06;4986353;28;20243;-77
2023/08/14 03:55:45;;;;;;;3.70;3.40;;;;;;;20.70;100.00;100147.84;4998649;28;20185;-77
2023/08/14 03:58:11;;;;;;;3.47;3.17;;;;;;;20.66;100.00;100148.09;4986002;28;20227;-77
2023/08/14 04:00:36;;;;;;;3.80;3.40;;;;;;;20.63;100.00;100140.38;4982545;28;20212;-78
2023/08/14 04:03:03;;;;;;;3.07;2.87;;;;;;;20.60;100.00;100137.88;4983634;28;20324;-77
2023/08/14 04:05:28;;;;;;;3.70;3.40;;;;;;;20.55;100.00;100138.13;4987611;28;20794;-77
2023/08/14 04:07:53;;;;;;;4.57;4.27;;;;;;;20.52;100.00;100140.94;4978303;28;20189;-76
2023/08/14 04:10:19;;;;;;;4.53;4.00;;;;;;;20.48;100.00;100149.94;4982546;28;20303;-77
2023/08/14 04:12:44;;;;;;;4.17;3.77;;;;;;;20.45;100.00;100142.19;4986260;28;20287;-76
2023/08/14 04:15:17;;;;;;;4.07;3.77;;;;;;;20.43;100.00;100152.78;4997823;28;20187;-77
2023/08/14 04:17:43;;;;;;;4.00;3.70;;;;;;;20.43;100.00;100157.19;4987401;28;20713;-78
2023/08/14 04:20:12;;;;;;;4.00;3.70;;;;;;;20.41;100.00;100165.16;4986083;28;20181;-77
2023/08/14 04:22:37;;;;;;;5.10;3.73;;;;;;;20.41;100.00;100173.06;4998238;28;20213;-78
2023/08/14 04:25:03;;;;;;;3.67;3.37;;;;;;;20.38;100.00;100173.22;4983427;28;20256;-77
2023/08/14 04:27:28;;;;;;;3.60;3.40;;;;;;;20.37;100.00;100158.38;4982540;28;20189;-76
2023/08/14 04:29:53;;;;;;;4.10;3.63;;;;;;;20.37;100.00;100155.75;4978506;28;20217;-78
2023/08/14 04:32:19;;;;;;;4.20;3.80;;;;;;;20.37;100.00;100150.47;4981329;28;20294;-76
2023/08/14 04:34:44;;;;;;;3.70;3.40;;;;;;;20.37;100.00;100151.31;4980704;28;20220;-77
2023/08/14 04:37:09;;;;;;;3.90;3.60;;;;;;;20.41;100.00;100146.78;4984198;28;20243;-76
2023/08/14 04:39:34;;;;;;;3.90;3.60;;;;;;;20.44;100.00;100141.34;4998217;28;20242;-77
2023/08/14 04:42:00;;;;;;;4.47;4.07;;;;;;;20.49;100.00;100143.75;4981983;28;20251;-77
2023/08/14 04:44:26;;;;;;;4.30;3.90;;;;;;;20.54;100.00;100145.19;4999820;28;20211;-78
2023/08/14 04:46:51;;;;;;;4.10;3.80;;;;;;;20.60;100.00;100127.38;4976900;28;20322;-78
2023/08/14 04:49:17;;;;;;;6.30;4.10;;;;;;;20.66;100.00;100129.69;5000159;28;20613;-78
2023/08/14 04:51:42;;;;;;;4.67;3.73;;;;;;;20.71;100.00;100125.03;4983391;28;20189;-79
2023/08/14 04:54:07;;;;;;;3.97;3.67;;;;;;;20.76;100.00;100120.41;4984854;28;20200;-78
2023/08/14 04:56:33;;;;;;;4.10;3.70;;;;;;;20.79;100.00;100116.78;4985382;28;20210;-79
2023/08/14 04:58:58;;;;;;;5.27;3.77;;;;;;;20.76;100.00;100116.94;4988694;28;20196;-80
2023/08/14 05:01:24;;;;;;;4.87;3.90;;;;;;;20.77;100.00;100110.75;4994582;28;20736;-78
2023/08/14 05:03:49;;;;;;;4.40;4.00;;;;;;;20.77;100.00;100108.94;4988717;28;20209;-77
2023/08/14 05:06:14;;;;;;;6.43;4.37;;;;;;;20.69;100.00;100111.97;4987121;28;20185;-77
2023/08/14 05:08:40;;;;;;;5.30;4.73;;;;;;;20.74;100.00;100105.59;4988343;28;20682;-77
2023/08/14 05:11:06;;;;;;;4.97;4.47;;;;;;;20.77;100.00;100100.22;4986717;28;20291;-78
2023/08/14 05:13:31;;;;;;;4.97;4.27;;;;;;;20.79;100.00;100095.72;4979245;28;20204;-77
2023/08/14 05:15:56;;;;;;;5.40;4.90;;;;;;;20.85;100.00;100098.88;4982265;28;20195;-78
2023/08/14 05:18:22;;;;;;;5.13;4.40;;;;;;;20.93;100.00;100100.22;4981574;28;20189;-76
2023/08/14 05:20:49;;;;;;;5.47;4.20;;;;;;;20.95;100.00;100104.44;4983748;28;21041;-77
2023/08/14 05:23:15;;;;;;;6.87;4.47;;;;;;;20.90;100.00;100095.13;4982481;28;20211;-76
2023/08/14 05:25:41;;;;;;;5.17;4.67;;;;;;;20.92;100.00;100096.75;4982517;28;20216;-77
2023/08/14 05:28:07;;;;;;;5.20;4.70;;;;;;;20.96;100.00;100098.25;4984214;28;20190;-77
2023/08/14 05:30:32;;;;;;;6.67;4.43;;;;;;;21.01;100.00;100106.75;4979405;28;20295;-77
2023/08/14 05:32:58;;;;;;;5.07;4.20;;;;;;;21.06;100.00;100111.75;4987014;28;20240;-76
2023/08/14 05:35:24;;;;;;;5.60;4.50;;;;;;;21.14;100.00;100112.19;4982938;28;20200;-76
2023/08/14 05:37:55;;;;;;;11.47;5.47;;;;;;;21.20;100.00;100107.50;4985172;28;20562;-76
2023/08/14 05:40:22;;;;;;;10.63;5.17;;;;;;;21.24;100.00;100112.53;4985002;28;20217;-76
2023/08/14 05:43:10;;;;;;;9.17;5.00;;;;;;;21.27;100.00;100119.38;4985827;28;20292;-77
2023/08/14 05:45:37;;;;;;;6.90;4.27;;;;;;;21.29;100.00;100126.25;4981823;28;20212;-77
2023/08/14 05:48:04;;;;;;;5.70;4.07;;;;;;;21.35;100.00;100122.41;4990028;28;20208;-79
2023/08/14 05:50:30;;;;;;;7.47;4.70;;;;;;;21.43;100.00;100120.22;4998675;28;20205;-78
2023/08/14 05:52:56;;;;;;;5.67;3.90;;;;;;;21.65;100.00;100128.69;5004196;28;20232;-77
2023/08/14 05:55:23;;;;;;;3.90;3.60;;;;;;;21.94;100.00;100132.22;4990340;28;20315;-79
2023/08/14 05:57:49;;;;;;;5.23;3.90;;;;;;;22.16;100.00;100126.53;4998228;28;20631;-77
2023/08/14 06:00:15;;;;;;;7.70;4.90;;;;;;;22.34;100.00;100118.44;5001839;28;20302;-80
2023/08/14 06:02:41;;;;;;;7.07;4.33;;;;;;;22.83;100.00;100107.53;5001200;28;20688;-80
2023/08/14 06:05:08;;;;;;;6.07;4.30;;;;;;;23.58;100.00;100111.56;5003343;28;20202;-79
2023/08/14 06:07:33;;;;;;;4.03;3.53;;;;;;;24.04;100.00;100106.78;4995319;28;20363;-78
2023/08/14 06:09:58;;;;;;;3.43;3.13;;;;;;;24.63;100.00;100124.72;4991322;28;20835;-79
2023/08/14 06:12:24;;;;;;;4.00;3.30;;;;;;;24.96;100.00;100106.53;4994744;28;20212;-79
2023/08/14 06:14:49;;;;;;;4.10;3.23;;;;;;;24.94;100.00;100089.97;4994084;28;20269;-78
2023/08/14 06:17:14;;;;;;;2.93;2.73;;;;;;;24.63;100.00;100095.59;4997825;28;20220;-79
2023/08/14 06:19:40;;;;;;;3.33;2.97;;;;;;;24.62;100.00;100114.25;4997818;28;20172;-78
2023/08/14 06:22:05;;;;;;;3.67;3.07;;;;;;;24.59;100.00;100102.06;4992720;28;20197;-80
2023/08/14 06:24:31;;;;;;;3.07;2.83;;;;;;;24.50;100.00;100102.72;4989339;28;20189;-77
2023/08/14 06:26:56;;;;;;;5.13;3.13;;;;;;;24.40;100.00;100106.97;4993492;28;20197;-78
2023/08/14 06:29:21;;;;;;;3.60;3.00;;;;;;;24.33;100.00;100096.81;4993801;28;20188;-78
2023/08/14 06:31:47;;;;;;;5.63;3.23;;;;;;;24.27;100.00;100094.63;5008419;28;20172;-78
2023/08/14 06:34:12;;;;;;;3.00;2.73;;;;;;;24.28;100.00;100087.53;4996219;28;20312;-77
2023/08/14 06:36:37;;;;;;;3.73;2.93;;;;;;;24.28;100.00;100088.34;4996500;28;20262;-79
2023/08/14 06:39:03;;;;;;;4.10;3.10;;;;;;;24.34;100.00;100095.03;4990007;28;20252;-78
2023/08/14 06:41:28;;;;;;;3.23;2.93;;;;;;;24.49;100.00;100085.16;4989589;28;20212;-79
2023/08/14 06:43:53;;;;;;;4.13;3.57;;;;;;;24.54;100.00;100074.25;4990381;28;20204;-79
2023/08/14 06:46:19;;;;;;;3.80;3.50;;;;;;;24.69;100.00;100082.91;4993482;28;20192;-78
2023/08/14 06:48:44;;;;;;;3.40;3.10;;;;;;;24.83;100.00;100088.09;4996617;28;20180;-78
2023/08/14 06:51:10;;;;;;;3.47;3.17;;;;;;;25.01;100.00;100082.41;4997342;28;20209;-79
2023/08/14 06:53:35;;;;;;;3.57;3.27;;;;;;;25.23;100.00;100090.44;4983673;28;20204;-78
2023/08/14 06:56:01;;;;;;;4.13;3.63;;;;;;;25.64;100.00;100087.50;4984975;28;20527;-80
2023/08/14 06:58:27;;;;;;;5.63;3.90;;;;;;;25.45;100.00;100094.19;4993378;28;21176;-80
2023/08/14 07:00:52;;;;;;;3.73;3.00;;;;;;;25.68;100.00;100091.59;4992619;28;20280;-78
2023/08/14 07:03:18;;;;;;;4.82;3.25;;;;;;;26.32;100.00;100100.88;4986486;28;20224;-78
2023/08/14 07:05:43;;;;;;;5.00;3.30;;;;;;;26.48;100.00;100100.50;4979814;28;20723;-78
2023/08/14 07:08:08;;;;;;;3.30;2.97;;;;;;;27.13;100.00;100099.84;4980058;28;20186;-79
2023/08/14 07:10:34;;;;;;;4.00;2.90;;;;;;;27.41;100.00;100095.72;5006793;28;20219;-79
2023/08/14 07:12:59;;;;;;;5.00;2.95;;;;;;;27.58;100.00;100104.13;4998383;28;20232;-79
2023/08/14 07:15:26;;;;;;;2.88;2.50;;;;;;;27.94;100.00;100107.31;4982003;28;20205;-80
2023/08/14 07:17:51;;;;;;;3.38;2.90;;;;;;;28.19;100.00;100106.09;4990369;28;20198;-78
2023/08/14 07:20:17;;;;;;;4.45;2.88;;;;;;;28.47;100.00;100108.16;4984805;28;20690;-79
2023/08/14 07:22:42;;;;;;;3.03;2.75;;;;;;;28.54;100.00;100106.66;5003553;28;20209;-80
2023/08/14 07:25:08;;;;;;;2.80;2.60;;;;;;;28.39;99.93;100114.16;4983320;28;20180;-79
2023/08/14 07:27:33;;;;;;;2.50;2.30;;;;;;;28.72;99.44;100113.00;4987776;28;21006;-79
2023/08/14 07:29:58;;;;;;;4.50;3.22;;;;;;;28.77;98.89;100125.94;4999761;28;21342;-78
2023/08/14 07:32:24;;;;;;;3.25;2.92;;;;;;;28.85;98.83;100128.75;4987673;28;20291;-80
2023/08/14 07:34:49;;;;;;;2.60;2.40;;;;;;;29.02;98.97;100127.28;4988981;28;20185;-79
2023/08/14 07:37:14;;;;;;;3.28;2.97;;;;;;;29.00;98.35;100123.91;4988899;28;20184;-79
2023/08/14 07:39:40;;;;;;;5.07;2.83;;;;;;;28.99;97.45;100126.69;4980391;28;20189;-78
2023/08/14 07:42:05;;;;;;;4.70;2.72;;;;;;;29.41;93.10;100121.16;4985285;28;20193;-81
2023/08/14 07:44:30;;;;;;;3.70;3.40;;;;;;;28.01;99.54;100105.81;5008104;28;20678;-81
2023/08/14 07:46:56;;;;;;;4.03;3.40;;;;;;;27.13;100.00;100100.66;4990322;28;20747;-80
2023/08/14 07:49:21;;;;;;;6.20;3.42;;;;;;;27.20;100.00;100101.88;4989351;28;20283;-79
2023/08/14 07:51:46;;;;;;;3.22;2.90;;;;;;;27.34;100.00;100114.00;4991619;28;20200;-81
2023/08/14 07:54:12;;;;;;;3.97;3.15;;;;;;;27.74;100.00;100122.31;5009667;28;20692;-82
2023/08/14 07:56:37;;;;;;;3.33;2.97;;;;;;;27.87;99.53;100128.28;4989482;28;20667;-79
2023/08/14 07:59:04;;;;;;;3.13;2.60;;;;;;;28.16;98.40;100122.31;4985446;28;20607;-80
2023/08/14 08:01:30;;;;;;;5.18;2.95;;;;;;;28.64;97.45;100127.97;5008988;28;20656;-80
2023/08/14 08:03:55;;;;;;;3.50;3.20;;;;;;;28.51;98.44;100130.88;4991313;28;20224;-78
2023/08/14 08:06:20;;;;;;;3.15;2.83;;;;;;;28.64;97.40;100147.44;4989664;28;20669;-79
2023/08/14 08:08:46;;;;;;;3.88;3.28;;;;;;;29.13;95.19;100142.25;4985332;28;20296;-78
2023/08/14 08:11:11;;;;;;;3.08;2.83;;;;;;;28.94;96.82;100143.06;4990239;28;20222;-79
2023/08/14 08:13:37;;;;;;;3.88;3.42;;;;;;;28.10;100.00;100136.13;4988124;28;20222;-78
2023/08/14 08:16:02;;;;;;;4.97;3.17;;;;;;;28.71;98.76;100143.28;4991483;28;20291;-78
2023/08/14 08:18:27;;;;;;;3.22;3.03;;;;;;;28.86;98.03;100135.78;4989589;28;20215;-79
2023/08/14 08:20:53;;;;;;;3.03;2.80;;;;;;;29.27;95.23;100135.69;4988384;28;20203;-79
2023/08/14 08:23:18;;;;;;;3.85;3.53;;;;;;;29.17;95.99;100135.69;4983793;28;20693;-78
2023/08/14 08:25:43;;;;;;;3.92;2.83;;;;;;;28.71;97.38;100139.75;4987311;28;20196;-79
2023/08/14 08:28:09;;;;;;;2.63;2.40;;;;;;;28.85;96.47;100146.56;4988837;28;20240;-81
2023/08/14 08:30:34;;;;;;;3.35;2.50;;;;;;;28.92;97.39;100153.03;4988334;28;20209;-78
2023/08/14 08:32:59;;;;;;;3.88;3.25;;;;;;;28.83;96.91;100151.19;4987948;28;20645;-78
2023/08/14 08:35:25;;;;;;;3.10;2.85;;;;;;;28.82;97.48;100147.66;4985758;28;20709;-79
2023/08/14 08:37:50;;;;;;;3.20;2.90;;;;;;;28.91;98.20;100146.00;4987617;28;20908;-78
2023/08/14 08:40:15;;;;;;;3.33;3.08;;;;;;;28.70;98.08;100143.41;4984443;28;20707;-79
2023/08/14 08:42:41;;;;;;;3.35;3.05;;;;;;;28.66;97.97;100156.16;4986577;28;20208;-78
2023/08/14 08:45:09;;;;;;;3.45;3.15;;;;;;;28.87;97.85;100141.97;4987392;28;20200;-79
2023/08/14 08:47:37;;;;;;;3.42;3.13;;;;;;;28.85;97.00;100141.25;4990150;28;20215;-79
2023/08/14 08:50:04;;;;;;;3.72;3.25;;;;;;;28.86;96.35;100137.59;4988458;28;20205;-78
2023/08/14 08:52:31;;;;;;;4.53;3.00;;;;;;;28.54;94.83;100139.41;4986488;28;20980;-78
2023/08/14 08:55:00;;;;;;;3.20;2.90;;;;;;;28.12;95.72;100145.69;4989010;28;20196;-80
2023/08/14 08:57:25;;;;;;;3.08;2.80;;;;;;;28.28;96.26;100139.06;4994452;28;20189;-79
2023/08/14 08:59:51;;;;;;;3.15;2.42;;;;;;;28.33;96.18;100141.31;4994501;28;20200;-79
2023/08/14 09:02:17;;;;;;;3.03;2.83;;;;;;;28.52;96.13;100144.03;5001995;28;20232;-78
2023/08/14 09:04:43;;;;;;;4.45;3.25;;;;;;;28.25;93.95;100141.97;5010570;28;20188;-78
2023/08/14 09:07:08;;;;;;;3.40;3.10;;;;;;;28.40;92.77;100142.44;5008948;28;20186;-79
2023/08/14 09:09:34;;;;;;;3.75;3.00;;;;;;;28.50;92.63;100143.34;4990491;28;20657;-78
2023/08/14 09:11:59;;;;;;;2.85;2.65;;;;;;;28.70;92.10;100144.25;4994641;28;20189;-78
2023/08/14 09:14:24;;;;;;;3.08;2.78;;;;;;;29.04;91.77;100135.13;5000488;28;20212;-77
2023/08/14 09:16:53;;;;;;;3.50;3.08;;;;;;;29.31;92.67;100128.25;4989842;28;20200;-77
2023/08/14 09:19:19;;;;;;;3.13;2.80;;;;;;;29.63;91.11;100128.03;4994353;28;20785;-79
2023/08/14 09:21:44;;;;;;;3.90;2.80;;;;;;;29.94;90.26;100130.50;4991937;28;20185;-77
2023/08/14 09:24:12;;;;;;;3.58;2.90;;;;;;;29.90;90.17;100131.75;4984721;28;20213;-77
2023/08/14 09:26:38;;;;;;;2.97;2.78;;;;;;;29.90;89.52;100128.25;4993297;28;20189;-78
2023/08/14 09:29:04;;;;;;;2.80;2.60;;;;;;;29.75;89.68;100133.19;4992126;28;20719;-80
2023/08/14 09:31:31;;;;;;;2.70;2.50;;;;;;;29.67;89.51;100136.56;4989740;28;20193;-79
2023/08/14 09:33:57;;;;;;;2.90;2.60;;;;;;;29.73;89.88;100133.31;4990547;28;20259;-79
2023/08/14 09:36:22;;;;;;;3.42;2.72;;;;;;;29.66;90.43;100127.72;4992195;28;20198;-80
2023/08/14 09:38:51;;;;;;;2.78;2.55;;;;;;;29.75;90.33;100120.69;4988709;28;20189;-79
2023/08/14 09:41:19;;;;;;;3.28;2.97;;;;;;;29.80;90.56;100130.91;4984390;28;20189;-79
2023/08/14 09:43:45;;;;;;;3.10;2.70;;;;;;;29.93;91.39;100141.28;4989659;28;20217;-80
2023/08/14 09:46:13;;;;;;;3.10;2.78;;;;;;;29.84;90.93;100145.66;4994308;28;20308;-79
2023/08/14 09:48:43;;;;;;;3.83;3.10;;;;;;;30.04;90.72;100140.31;4988330;28;20324;-79
2023/08/14 09:51:12;;;;;;;2.80;2.55;;;;;;;30.05;89.31;100150.84;4986254;28;20201;-79
2023/08/14 09:53:48;;;;;;;3.45;2.55;;;;;;;30.13;89.15;100152.78;5003776;28;20236;-79
2023/08/14 09:56:15;;;;;;;3.85;2.38;;;;;;;30.13;89.13;100154.63;5001842;28;20197;-79
2023/08/14 09:58:41;;;;;;;5.10;2.90;;;;;;;30.13;89.69;100147.47;4982841;28;20646;-80
2023/08/14 10:01:07;;;;;;;2.90;2.60;;;;;;;30.07;88.83;100148.06;4985294;28;20204;-77
2023/08/14 10:03:34;;;;;;;2.75;2.55;;;;;;;29.80;88.29;100142.44;4994195;28;20216;-78
2023/08/14 10:06:01;;;;;;;2.97;2.78;;;;;;;30.04;89.09;100143.00;4996684;28;20189;-77
2023/08/14 10:08:29;;;;;;;3.15;2.85;;;;;;;29.97;89.93;100148.06;4990746;28;20193;-78
2023/08/14 10:10:55;;;;;;;3.17;2.85;;;;;;;29.44;90.11;100152.84;4988794;28;20259;-79
2023/08/14 10:13:21;;;;;;;3.00;2.80;;;;;;;29.71;90.34;100147.78;5005380;28;20223;-79
2023/08/14 10:15:52;;;;;;;3.45;2.60;;;;;;;29.81;89.93;100154.81;4991695;28;20192;-80
2023/08/14 10:18:22;;;;;;;2.55;2.35;;;;;;;29.99;89.32;100159.44;4987951;28;20189;-78
2023/08/14 10:20:50;;;;;;;2.60;2.40;;;;;;;30.14;89.00;100151.81;4989702;28;20189;-79
2023/08/14 10:23:17;;;;;;;3.63;3.10;;;;;;;30.13;89.55;100162.63;4986826;28;20193;-78
2023/08/14 10:25:47;;;;;;;3.17;2.97;;;;;;;30.09;89.71;100162.09;4984902;28;20204;-82
2023/08/14 10:28:12;;;;;;;3.20;2.75;;;;;;;30.16;89.59;100159.69;4986414;28;20199;-78
2023/08/14 10:30:39;;;;;;;3.13;2.70;;;;;;;30.31;88.86;100160.91;4992388;28;20208;-78
2023/08/14 10:33:06;;;;;;;3.05;2.72;;;;;;;30.51;88.31;100167.00;4985573;28;20755;-78
2023/08/14 10:35:50;;;;;;;3.22;2.92;;;;;;;30.36;88.27;100168.47;4989985;28;20223;-78
2023/08/14 10:38:16;;;;;;;2.83;2.63;;;;;;;30.48;89.33;100174.47;4989307;28;20272;-79
2023/08/14 10:41:03;;;;;;;3.55;3.25;;;;;;;30.57;89.54;100168.28;4983791;28;20271;-78
2023/08/14 10:43:29;;;;;;;3.55;3.25;;;;;;;30.52;91.38;100168.69;4988717;28;20219;-77
2023/08/14 10:45:54;;;;;;;3.97;3.67;;;;;;;30.63;90.03;100161.50;4991079;28;20180;-78
2023/08/14 10:48:20;;;;;;;3.35;3.00;;;;;;;30.67;90.36;100154.88;4985132;28;20199;-77
2023/08/14 10:50:49;;;;;;;3.10;2.80;;;;;;;30.75;89.43;100151.47;4999271;28;20256;-78
2023/08/14 10:53:15;;;;;;;3.00;2.80;;;;;;;30.72;89.82;100155.25;4993519;28;20243;-77
2023/08/14 10:55:44;;;;;;;3.42;3.00;;;;;;;30.29;88.74;100162.88;4995869;28;20297;-78
2023/08/14 10:58:28;;;;;;;3.33;3.03;;;;;;;30.29;90.14;100165.53;5000352;28;20189;-79
2023/08/14 11:00:54;;;;;;;3.20;2.90;;;;;;;30.30;90.62;100171.72;4991831;28;20226;-77
2023/08/14 11:03:19;;;;;;;6.03;3.25;;;;;;;30.16;92.46;100165.03;4991459;28;20216;-81
2023/08/14 11:05:45;;;;;;;3.83;3.17;;;;;;;30.24;92.47;100181.16;4994394;28;20653;-79
2023/08/14 11:08:12;;;;;;;4.43;3.28;;;;;;;30.30;91.73;100180.56;5004141;28;20263;-79
2023/08/14 11:10:38;;;;;;;3.65;3.33;;;;;;;29.96;92.37;100183.72;4988101;28;20229;-78
2023/08/14 11:13:09;;;;;;;3.63;3.33;;;;;;;29.99;93.09;100164.78;4988581;28;20205;-78
2023/08/14 11:15:35;;;;;;;5.63;3.30;;;;;;;30.12;93.03;100164.44;4987871;28;20662;-78